createdAt,value
2019-02-19T00:01:00.760Z,27.23
2019-02-19T00:03:30.135Z,22.37
2019-02-19T00:05:59.304Z,19.23
2019-02-19T00:08:28.533Z,21.77
2019-02-19T00:10:57.859Z,21.77
2019-02-19T00:13:27.775Z,21.33
2019-02-19T00:16:00.574Z,20.33
2019-02-19T00:18:29.781Z,20.87
2019-02-19T00:20:58.924Z,22.37
2019-02-19T00:23:28.030Z,17.53
2019-02-19T00:25:57.244Z,19.70
2019-02-19T00:28:26.277Z,21.40
2019-02-19T00:30:56.879Z,19.67
2019-02-19T00:33:26.068Z,19.27
2019-02-19T00:35:56.306Z,24.73
2019-02-19T00:38:25.417Z,19.90
2019-02-19T00:40:54.551Z,19.37
2019-02-19T00:43:31.184Z,18.80
2019-02-19T00:46:00.451Z,19.67
2019-02-19T00:48:29.777Z,20.47
2019-02-19T00:50:58.874Z,19.73
2019-02-19T00:53:28.093Z,18.50
2019-02-19T00:55:57.418Z,23.77
2019-02-19T00:58:29.696Z,21.00
2019-02-19T01:00:58.891Z,23.77
2019-02-19T01:03:28.026Z,23.43
2019-02-19T01:05:57.205Z,22.23
2019-02-19T01:08:26.366Z,24.03
2019-02-19T01:10:55.595Z,24.33
2019-02-19T01:13:24.850Z,23.93
2019-02-19T01:15:54.123Z,24.23
2019-02-19T01:18:25.162Z,27.50
2019-02-19T01:20:54.327Z,25.70
2019-02-19T01:23:23.614Z,19.83
2019-02-19T01:25:53.010Z,22.80
2019-02-19T01:28:23.706Z,26.03
2019-02-19T01:30:53.047Z,22.03
2019-02-19T01:33:22.270Z,23.87
2019-02-19T01:35:51.440Z,29.80
2019-02-19T01:38:21.277Z,23.20
2019-02-19T01:40:50.788Z,22.80
2019-02-19T01:43:20.230Z,28.77
2019-02-19T01:45:50.055Z,23.33
2019-02-19T01:48:19.270Z,23.67
2019-02-19T01:50:48.459Z,20.93
2019-02-19T01:53:20.203Z,20.93
2019-02-19T01:55:50.283Z,25.03
2019-02-19T01:58:19.723Z,23.47
2019-02-19T02:00:51.653Z,20.80
2019-02-19T02:03:21.119Z,22.30
2019-02-19T02:05:50.445Z,24.33
2019-02-19T02:08:19.803Z,23.90
2019-02-19T02:10:48.982Z,22.87
2019-02-19T02:13:18.083Z,25.90
2019-02-19T02:15:47.264Z,20.57
2019-02-19T02:18:16.559Z,21.20
2019-02-19T02:20:45.847Z,21.80
2019-02-19T02:23:15.165Z,23.47
2019-02-19T02:25:44.723Z,23.27
2019-02-19T02:28:13.905Z,22.47
2019-02-19T02:30:43.146Z,20.73
2019-02-19T02:33:12.348Z,20.10
2019-02-19T02:35:42.113Z,23.93
2019-02-19T02:38:11.298Z,22.67
2019-02-19T02:40:40.495Z,19.60
2019-02-19T02:43:09.651Z,19.70
2019-02-19T02:45:38.811Z,19.93
2019-02-19T02:48:07.939Z,25.30
2019-02-19T02:50:37.100Z,21.47
2019-02-19T02:53:06.296Z,21.63
2019-02-19T02:55:35.435Z,20.63
2019-02-19T02:58:04.537Z,20.23
2019-02-19T03:00:33.708Z,23.73
2019-02-19T03:03:03.201Z,20.07
2019-02-19T03:05:38.081Z,21.40
2019-02-19T03:08:09.451Z,23.53
2019-02-19T03:10:38.676Z,22.70
2019-02-19T03:13:07.775Z,20.67
2019-02-19T03:15:37.067Z,18.40
2019-02-19T03:18:07.405Z,20.60
2019-02-19T03:20:36.584Z,18.37
2019-02-19T03:23:05.810Z,21.87
2019-02-19T03:25:34.937Z,23.23
2019-02-19T03:28:04.055Z,23.73
2019-02-19T03:30:33.334Z,24.27
2019-02-19T03:33:02.696Z,19.43
2019-02-19T03:35:31.921Z,21.80
2019-02-19T03:38:01.242Z,23.77
2019-02-19T03:40:30.731Z,22.17
2019-02-19T03:43:00.002Z,22.13
2019-02-19T03:45:29.326Z,21.37
2019-02-19T03:47:58.642Z,23.33
2019-02-19T03:50:27.854Z,20.97
2019-02-19T03:52:57.114Z,26.07
2019-02-19T03:55:26.689Z,24.07
2019-02-19T03:58:15.495Z,24.47
2019-02-19T04:00:44.823Z,22.20
2019-02-19T04:03:14.117Z,25.00
2019-02-19T04:05:43.440Z,27.67
2019-02-19T04:08:12.577Z,25.87
2019-02-19T04:10:41.802Z,27.63
2019-02-19T04:13:11.000Z,21.03
2019-02-19T04:15:40.217Z,25.60
2019-02-19T04:18:09.597Z,23.97
2019-02-19T04:20:39.201Z,23.03
2019-02-19T04:23:08.381Z,27.53
2019-02-19T04:25:39.348Z,21.43
2019-02-19T04:28:08.707Z,24.57
2019-02-19T04:30:37.904Z,21.97
2019-02-19T04:33:07.066Z,25.40
2019-02-19T04:35:36.355Z,23.30
2019-02-19T04:38:06.854Z,24.27
2019-02-19T04:40:36.080Z,23.40
2019-02-19T04:43:05.371Z,28.07
2019-02-19T04:45:36.702Z,20.07
2019-02-19T04:48:05.942Z,22.17
2019-02-19T04:50:35.299Z,24.37
2019-02-19T04:53:04.624Z,27.67
2019-02-19T04:55:34.136Z,23.33
2019-02-19T04:58:03.465Z,21.10
2019-02-19T05:00:34.231Z,23.60
2019-02-19T05:03:04.398Z,23.90
2019-02-19T05:05:33.674Z,23.70
2019-02-19T05:08:02.894Z,25.90
2019-02-19T05:10:32.386Z,23.17
2019-02-19T05:13:03.365Z,23.23
2019-02-19T05:15:33.637Z,25.50
2019-02-19T05:18:02.853Z,22.03
2019-02-19T05:20:32.136Z,23.30
2019-02-19T05:23:03.927Z,23.63
2019-02-19T05:25:33.365Z,25.07
2019-02-19T05:28:02.699Z,23.80
2019-02-19T05:30:31.927Z,22.82
2019-02-19T05:33:01.298Z,23.13
2019-02-19T05:35:30.546Z,22.73
2019-02-19T05:37:59.808Z,22.17
2019-02-19T05:40:29.011Z,26.10
2019-02-19T05:42:58.197Z,27.57
2019-02-19T05:45:27.510Z,27.30
2019-02-19T05:47:57.822Z,33.80
2019-02-19T05:50:27.261Z,30.00
2019-02-19T05:52:58.156Z,31.17
2019-02-19T05:55:27.408Z,28.23
2019-02-19T05:57:56.552Z,27.93
2019-02-19T06:00:25.834Z,32.03
2019-02-19T06:02:54.994Z,32.67
2019-02-19T06:05:24.063Z,30.57
2019-02-19T06:07:53.258Z,28.40
2019-02-19T06:10:22.570Z,28.03
2019-02-19T06:12:51.740Z,29.80
2019-02-19T06:15:20.970Z,26.70
2019-02-19T06:17:50.140Z,25.27
2019-02-19T06:20:19.301Z,27.97
2019-02-19T06:22:48.549Z,24.93
2019-02-19T06:25:19.760Z,27.47
2019-02-19T06:27:50.137Z,22.23
2019-02-19T06:30:19.248Z,29.73
2019-02-19T06:32:48.638Z,27.90
2019-02-19T06:35:17.924Z,27.70
2019-02-19T06:37:47.241Z,27.70
2019-02-19T06:40:27.157Z,30.20
2019-02-19T06:42:56.362Z,27.27
2019-02-19T06:45:25.982Z,27.87
2019-02-19T06:47:55.279Z,26.20
2019-02-19T06:50:24.521Z,27.70
2019-02-19T06:52:53.628Z,27.17
2019-02-19T06:55:22.662Z,24.60
2019-02-19T06:57:51.828Z,29.47
2019-02-19T07:00:22.966Z,26.03
2019-02-19T07:02:57.326Z,29.00
2019-02-19T07:05:26.372Z,31.03
2019-02-19T07:07:55.454Z,27.53
2019-02-19T07:10:24.709Z,34.73
2019-02-19T07:12:53.593Z,29.80
2019-02-19T07:15:22.714Z,27.50
2019-02-19T07:17:51.679Z,26.03
2019-02-19T07:20:20.761Z,24.47
2019-02-19T07:22:49.697Z,27.43
2019-02-19T07:25:18.676Z,27.63
2019-02-19T07:27:47.847Z,29.50
2019-02-19T07:30:16.929Z,29.43
2019-02-19T07:32:45.853Z,23.73
2019-02-19T07:35:14.908Z,24.57
2019-02-19T07:37:43.928Z,24.87
2019-02-19T07:40:12.911Z,26.23
2019-02-19T07:42:41.960Z,28.20
2019-02-19T07:45:11.248Z,28.33
2019-02-19T07:47:40.374Z,28.53
2019-02-19T07:50:09.718Z,25.87
2019-02-19T07:52:38.696Z,22.10
2019-02-19T07:55:09.304Z,22.63
2019-02-19T07:57:38.433Z,20.80
2019-02-19T08:00:08.273Z,21.50
2019-02-19T08:02:37.339Z,21.83
2019-02-19T08:05:06.740Z,20.77
2019-02-19T08:07:35.690Z,24.47
2019-02-19T08:10:04.917Z,20.83
2019-02-19T08:12:34.438Z,22.57
2019-02-19T08:15:03.482Z,21.00
2019-02-19T08:17:33.542Z,24.47
2019-02-19T08:20:02.834Z,23.90
2019-02-19T08:22:31.953Z,21.90
2019-02-19T08:25:00.852Z,21.43
2019-02-19T08:27:29.861Z,21.07
2019-02-19T08:29:58.845Z,24.83
2019-02-19T08:32:27.925Z,21.27
2019-02-19T08:34:57.077Z,20.07
2019-02-19T08:37:25.997Z,21.43
2019-02-19T08:39:55.081Z,21.60
2019-02-19T08:42:24.117Z,22.60
2019-02-19T08:44:53.124Z,21.93
2019-02-19T08:47:22.094Z,19.97
2019-02-19T08:49:51.083Z,20.30
2019-02-19T08:52:20.259Z,20.93
2019-02-19T08:54:49.559Z,20.73
2019-02-19T08:57:18.518Z,20.30
2019-02-19T08:59:47.559Z,20.00
2019-02-19T09:02:16.588Z,18.27
2019-02-19T09:04:45.592Z,20.37
2019-02-19T09:07:14.655Z,18.23
2019-02-19T09:09:43.648Z,18.50
2019-02-19T09:12:12.663Z,20.83
2019-02-19T09:14:41.599Z,17.93
2019-02-19T09:17:10.562Z,17.20
2019-02-19T09:19:39.691Z,19.20
2019-02-19T09:22:08.823Z,18.03
2019-02-19T09:24:37.899Z,21.57
2019-02-19T09:27:07.077Z,24.77
2019-02-19T09:29:36.081Z,18.63
2019-02-19T09:32:05.114Z,20.70
2019-02-19T09:34:34.218Z,28.13
2019-02-19T09:37:03.173Z,17.30
2019-02-19T09:39:32.280Z,19.30
2019-02-19T09:42:01.379Z,20.77
2019-02-19T09:44:30.345Z,20.43
2019-02-19T09:46:59.460Z,17.27
2019-02-19T09:49:28.419Z,19.63
2019-02-19T09:51:57.402Z,18.07
2019-02-19T09:54:26.662Z,17.30
2019-02-19T09:56:55.664Z,19.73
2019-02-19T09:59:24.658Z,18.70
2019-02-19T10:01:53.639Z,19.10
2019-02-19T10:04:22.595Z,27.20
2019-02-19T10:06:51.714Z,20.87
2019-02-19T10:09:20.835Z,21.13
2019-02-19T10:11:49.928Z,19.23
2019-02-19T10:14:18.920Z,19.90
2019-02-19T10:16:48.012Z,23.57
2019-02-19T10:19:18.207Z,18.43
2019-02-19T10:21:47.250Z,19.77
2019-02-19T10:24:16.234Z,18.47
2019-02-19T10:26:45.233Z,18.17
2019-02-19T10:29:14.217Z,18.17
2019-02-19T10:31:43.225Z,19.63
2019-02-19T10:34:12.200Z,18.97
2019-02-19T10:36:41.203Z,19.13
2019-02-19T10:39:11.890Z,18.87
2019-02-19T10:41:40.953Z,19.33
2019-02-19T10:44:10.001Z,24.27
2019-02-19T10:46:38.990Z,19.47
2019-02-19T10:49:08.069Z,17.93
2019-02-19T10:51:37.115Z,20.40
2019-02-19T10:54:06.200Z,17.50
2019-02-19T10:56:35.183Z,17.73
2019-02-19T10:59:04.181Z,17.97
2019-02-19T11:01:33.965Z,19.57
2019-02-19T11:04:03.096Z,21.73
2019-02-19T11:06:32.081Z,17.77
2019-02-19T11:09:01.176Z,23.10
2019-02-19T11:11:30.185Z,20.73
2019-02-19T11:13:59.281Z,21.73
2019-02-19T11:16:28.334Z,20.10
2019-02-19T11:18:57.448Z,17.73
2019-02-19T11:21:26.470Z,17.27
2019-02-19T11:23:55.487Z,19.00
2019-02-19T11:26:25.669Z,21.90
2019-02-19T11:28:54.775Z,14.57
2019-02-19T11:31:23.950Z,16.43
2019-02-19T11:33:52.978Z,19.63
2019-02-19T11:36:22.086Z,17.30
2019-02-19T11:38:51.134Z,18.40
2019-02-19T11:41:20.138Z,17.40
2019-02-19T11:43:49.095Z,16.40
2019-02-19T11:46:19.216Z,21.33
2019-02-19T11:48:48.267Z,18.83
2019-02-19T11:51:17.237Z,20.25
2019-02-19T11:53:46.480Z,24.23
2019-02-19T11:56:15.382Z,20.70
2019-02-19T11:58:44.398Z,15.83
2019-02-19T12:01:13.414Z,17.30
2019-02-19T12:03:42.419Z,15.87
2019-02-19T12:06:11.423Z,16.53
2019-02-19T12:08:40.347Z,15.27
2019-02-19T12:11:09.476Z,16.13
2019-02-19T12:13:38.570Z,17.80
2019-02-19T12:16:07.582Z,16.13
2019-02-19T12:18:46.104Z,14.97
2019-02-19T12:21:12.394Z,14.13
2019-02-19T12:23:41.441Z,16.07
2019-02-19T12:26:10.417Z,16.97
2019-02-19T12:28:39.463Z,17.87
2019-02-19T12:31:08.437Z,13.93
2019-02-19T12:33:43.311Z,14.83
2019-02-19T12:36:12.305Z,16.87
2019-02-19T12:38:41.225Z,15.77
2019-02-19T12:41:10.253Z,15.93
2019-02-19T12:43:39.214Z,15.13
2019-02-19T12:46:08.237Z,14.93
2019-02-19T12:49:01.375Z,17.37
2019-02-19T12:51:30.849Z,18.00
2019-02-19T12:54:01.161Z,14.10
2019-02-19T12:56:30.225Z,15.50
2019-02-19T12:58:59.176Z,15.57
2019-02-19T13:01:28.266Z,15.93
2019-02-19T13:03:57.386Z,17.37
2019-02-19T13:06:26.415Z,15.33
2019-02-19T13:08:55.482Z,13.77
2019-02-19T13:11:24.948Z,14.93
2019-02-19T13:13:53.995Z,13.47
2019-02-19T13:16:23.103Z,13.70
2019-02-19T13:18:52.215Z,15.10
2019-02-19T13:21:21.262Z,12.77
2019-02-19T13:23:50.235Z,15.83
2019-02-19T13:26:19.282Z,13.20
2019-02-19T13:28:48.382Z,13.77
2019-02-19T13:31:17.434Z,13.13
2019-02-19T13:33:46.466Z,14.43
2019-02-19T13:36:15.543Z,15.13
2019-02-19T13:38:44.497Z,11.63
2019-02-19T13:41:13.518Z,15.43
2019-02-19T13:43:42.633Z,12.93
2019-02-19T13:46:11.694Z,11.87
2019-02-19T13:48:40.723Z,15.37
2019-02-19T13:51:09.786Z,12.37
2019-02-19T13:53:45.541Z,14.37
2019-02-19T13:56:14.578Z,10.33
2019-02-19T13:58:43.635Z,12.67
2019-02-19T14:01:12.689Z,11.67
2019-02-19T14:03:41.869Z,13.60
2019-02-19T14:06:10.909Z,13.53
2019-02-19T14:08:39.926Z,11.77
2019-02-19T14:11:10.443Z,12.40
2019-02-19T14:13:42.578Z,15.83
2019-02-19T14:16:18.899Z,12.83
2019-02-19T14:18:51.013Z,13.80
2019-02-19T14:21:45.096Z,12.00
2019-02-19T14:24:39.153Z,11.87
2019-02-19T14:27:45.339Z,12.47
2019-02-19T14:30:31.627Z,11.53
2019-02-19T14:33:20.490Z,14.10
2019-02-19T14:36:17.966Z,12.33
2019-02-19T14:39:09.751Z,10.87
2019-02-19T14:42:00.900Z,10.57
2019-02-19T14:44:47.918Z,11.90
2019-02-19T14:47:29.250Z,14.47
2019-02-19T14:50:16.352Z,13.13
2019-02-19T14:53:16.870Z,9.87
2019-02-19T14:56:20.361Z,16.00
2019-02-19T14:59:07.591Z,11.07
2019-02-19T15:01:56.959Z,10.80
2019-02-19T15:04:54.338Z,11.20
2019-02-19T15:07:38.002Z,9.70
2019-02-19T15:10:42.443Z,13.63
2019-02-19T15:13:27.621Z,10.27
2019-02-19T15:16:02.872Z,10.73
2019-02-19T15:18:42.188Z,13.63
2019-02-19T15:21:39.241Z,11.83
2019-02-19T15:24:21.411Z,11.60
2019-02-19T15:27:05.636Z,11.07
2019-02-19T15:30:00.811Z,10.93
2019-02-19T15:32:56.031Z,10.33
2019-02-19T15:35:54.635Z,11.57
2019-02-19T15:38:51.722Z,13.37
2019-02-19T15:41:31.589Z,12.67
2019-02-19T15:44:22.706Z,13.67
2019-02-19T15:47:19.828Z,10.23
2019-02-19T15:50:05.289Z,11.43
2019-02-19T15:53:00.313Z,10.13
2019-02-19T15:55:48.443Z,10.57
2019-02-19T15:58:28.487Z,10.80
2019-02-19T16:01:25.612Z,8.93
2019-02-19T16:04:15.986Z,10.03
2019-02-19T16:07:19.508Z,13.13
2019-02-19T16:10:03.796Z,11.87
2019-02-19T16:12:54.667Z,11.50
2019-02-19T16:16:01.247Z,12.50
2019-02-19T16:18:35.127Z,9.37
2019-02-19T16:21:18.770Z,15.27
2019-02-19T16:24:06.203Z,25.33
2019-02-19T16:26:45.349Z,24.77
2019-02-19T16:29:32.130Z,27.00
2019-02-19T16:32:07.626Z,27.73
2019-02-19T16:35:10.717Z,28.87
2019-02-19T16:37:44.717Z,33.33
2019-02-19T16:40:42.085Z,29.63
2019-02-19T16:43:19.171Z,30.37
2019-02-19T16:45:57.891Z,26.03
2019-02-19T16:48:58.167Z,31.10
2019-02-19T16:51:46.567Z,23.13
2019-02-19T16:54:23.417Z,19.50
2019-02-19T16:57:07.692Z,13.17
2019-02-19T16:59:58.194Z,12.10
2019-02-19T17:02:45.470Z,11.77
2019-02-19T17:05:33.648Z,10.10
2019-02-19T17:08:09.795Z,8.43
2019-02-19T17:10:47.886Z,8.20
2019-02-19T17:13:42.198Z,9.57
2019-02-19T17:16:33.403Z,8.60
2019-02-19T17:19:22.995Z,9.43
2019-02-19T17:22:14.121Z,10.40
2019-02-19T17:25:02.314Z,13.53
2019-02-19T17:27:39.841Z,10.07
2019-02-19T17:30:43.886Z,11.73
2019-02-19T17:33:28.100Z,9.63
2019-02-19T17:36:12.666Z,12.53
2019-02-19T17:38:48.613Z,13.10
2019-02-19T17:41:30.161Z,11.57
2019-02-19T17:44:24.067Z,12.03
2019-02-19T17:47:10.864Z,9.57
2019-02-19T17:49:49.019Z,11.80
2019-02-19T17:52:55.258Z,11.57
2019-02-19T17:55:42.936Z,10.90
2019-02-19T17:58:34.372Z,13.27
2019-02-19T18:01:11.726Z,12.30
2019-02-19T18:03:49.827Z,13.00
2019-02-19T18:06:47.089Z,12.73
2019-02-19T18:09:27.280Z,12.33
2019-02-19T18:12:05.846Z,13.13
2019-02-19T18:14:53.750Z,11.13
2019-02-19T18:17:45.057Z,12.00
2019-02-19T18:20:14.255Z,14.33
2019-02-19T18:22:43.522Z,13.37
2019-02-19T18:25:12.745Z,14.73
2019-02-19T18:27:41.892Z,11.50
2019-02-19T18:30:12.210Z,15.43
2019-02-19T18:32:41.412Z,12.57
2019-02-19T18:35:10.603Z,14.60
2019-02-19T18:37:39.804Z,15.07
2019-02-19T18:40:09.648Z,16.30
2019-02-19T18:42:39.333Z,16.17
2019-02-19T18:45:08.951Z,13.57
2019-02-19T18:47:38.002Z,11.87
2019-02-19T18:50:07.335Z,16.73
2019-02-19T18:52:36.612Z,12.03
2019-02-19T18:55:07.119Z,13.70
2019-02-19T18:57:36.238Z,12.70
2019-02-19T19:00:08.464Z,12.37
2019-02-19T19:02:40.261Z,14.83
2019-02-19T19:05:09.692Z,14.43
2019-02-19T19:07:39.092Z,14.00
2019-02-19T19:10:09.193Z,14.20
2019-02-19T19:12:38.369Z,14.50
2019-02-19T19:15:08.352Z,15.23
2019-02-19T19:17:37.707Z,16.27
2019-02-19T19:20:07.152Z,13.53
2019-02-19T19:22:36.349Z,14.97
2019-02-19T19:25:06.099Z,17.62
2019-02-19T19:27:35.186Z,14.33
2019-02-19T19:30:04.530Z,16.00
2019-02-19T19:32:33.561Z,15.30
2019-02-19T19:35:02.652Z,20.63
2019-02-19T19:37:31.708Z,15.03
2019-02-19T19:40:00.972Z,14.63
2019-02-19T19:42:30.056Z,18.47
2019-02-19T19:44:59.288Z,18.50
2019-02-19T19:47:28.467Z,15.63
2019-02-19T19:49:57.569Z,16.73
2019-02-19T19:52:26.714Z,15.87
2019-02-19T19:54:55.883Z,15.43
2019-02-19T19:57:24.999Z,17.67
2019-02-19T19:59:54.065Z,15.03
2019-02-19T20:02:23.336Z,16.80
2019-02-19T20:04:52.487Z,17.93
2019-02-19T20:07:24.173Z,14.23
2019-02-19T20:09:53.498Z,17.90
2019-02-19T20:12:25.303Z,17.97
2019-02-19T20:14:54.575Z,18.40
2019-02-19T20:17:24.791Z,16.20
2019-02-19T20:19:54.463Z,16.00
2019-02-19T20:22:23.750Z,16.60
2019-02-19T20:24:53.109Z,19.07
2019-02-19T20:27:22.197Z,16.47
2019-02-19T20:29:51.451Z,19.13
2019-02-19T20:32:20.955Z,20.77
2019-02-19T20:34:51.199Z,17.43
2019-02-19T20:37:22.264Z,16.40
2019-02-19T20:39:51.409Z,19.50
2019-02-19T20:42:20.585Z,17.00
2019-02-19T20:44:49.708Z,17.20
2019-02-19T20:47:18.955Z,20.77
2019-02-19T20:49:48.238Z,18.03
2019-02-19T20:52:19.715Z,19.83
2019-02-19T20:54:51.457Z,19.83
2019-02-19T20:57:26.275Z,18.10
2019-02-19T20:59:55.615Z,16.60
2019-02-19T21:02:27.885Z,18.97
2019-02-19T21:05:07.202Z,17.40
2019-02-19T21:07:36.738Z,22.33
2019-02-19T21:10:09.801Z,21.97
2019-02-19T21:12:40.607Z,17.03
2019-02-19T21:15:14.234Z,18.00
2019-02-19T21:17:49.725Z,16.70
2019-02-19T21:20:19.009Z,19.27
2019-02-19T21:22:49.305Z,18.07
2019-02-19T21:25:19.661Z,18.00
2019-02-19T21:27:49.033Z,20.37
2019-02-19T21:30:25.035Z,20.17
2019-02-19T21:32:56.324Z,18.43
2019-02-19T21:35:28.789Z,18.77
2019-02-19T21:38:03.279Z,19.87
2019-02-19T21:40:34.514Z,17.43
2019-02-19T21:43:07.897Z,20.70
2019-02-19T21:45:37.168Z,17.67
2019-02-19T21:48:06.347Z,20.10
2019-02-19T21:50:38.587Z,18.07
2019-02-19T21:53:14.798Z,23.17
2019-02-19T21:55:46.130Z,19.33
2019-02-19T21:58:18.393Z,19.93
2019-02-19T22:00:48.710Z,20.23
2019-02-19T22:03:18.941Z,25.47
2019-02-19T22:05:48.268Z,23.30
2019-02-19T22:08:18.651Z,21.27
2019-02-19T22:10:48.862Z,21.17
2019-02-19T22:13:18.125Z,20.67
2019-02-19T22:15:49.407Z,19.97
2019-02-19T22:18:20.561Z,20.33
2019-02-19T22:20:58.386Z,22.30
2019-02-19T22:23:30.747Z,20.67
2019-02-19T22:25:59.968Z,22.40
2019-02-19T22:28:30.283Z,22.63
2019-02-19T22:31:02.959Z,22.07
2019-02-19T22:33:38.162Z,23.67
2019-02-19T22:36:07.537Z,18.87
2019-02-19T22:38:36.878Z,21.70
2019-02-19T22:41:11.299Z,23.47
2019-02-19T22:43:42.602Z,24.73
2019-02-19T22:46:16.283Z,22.97
2019-02-19T22:48:46.554Z,25.27
2019-02-19T22:51:24.708Z,23.30
2019-02-19T22:54:03.333Z,24.30
2019-02-19T22:56:35.482Z,26.20
2019-02-19T22:59:04.730Z,22.57
2019-02-19T23:02:01.962Z,21.77
2019-02-19T23:04:32.035Z,25.17
2019-02-19T23:07:01.242Z,22.83
2019-02-19T23:09:30.599Z,22.60
2019-02-19T23:11:59.777Z,25.63
2019-02-19T23:14:29.180Z,25.20
2019-02-19T23:17:02.474Z,27.43
2019-02-19T23:19:31.819Z,25.83
2019-02-19T23:22:01.137Z,25.00
2019-02-19T23:24:30.427Z,24.13
2019-02-19T23:26:59.646Z,23.67
2019-02-19T23:29:31.322Z,22.60
2019-02-19T23:32:00.567Z,26.17
2019-02-19T23:34:29.920Z,24.07
2019-02-19T23:37:14.539Z,23.20
2019-02-19T23:39:44.085Z,24.10
2019-02-19T23:42:13.573Z,22.57
2019-02-19T23:44:42.857Z,24.13
2019-02-19T23:47:12.257Z,25.23
2019-02-19T23:49:41.505Z,22.17
2019-02-19T23:52:10.755Z,28.07
2019-02-19T23:54:40.006Z,20.27
2019-02-19T23:57:09.565Z,19.50
2019-02-19T23:59:38.767Z,22.30
